Texas General Land Office
 Texas General Land Office
 George P. Bush, Commissioner

 Oil Spill Prevention
 & Response

Texas Automated Buoy System
Real Time Ocean Observations
Supporting Oil Spill Prevention and
Response since 1995
Geochemical and Environmental Research Group

NOAA - NDBC Buoy 42019 -- Texas Automated Buoy System

NBDC Buoy 42019
Freeport, TX
Conditions at 10/19/2018 07:20 UTC (10/19/2018 07:20 UTC)
27° 54.7830'N   95° 21.6000'W
60nm South of Freeport, TX
Anemometer height: 5m
Water Depth: 269 feet (82 meters)
Wind: 8.0 m/s (15.6 kts)
          From 100°T (E)
Wind Gust: 10.00 m/s (19.4 kts) Pressure: 1017.8 mb (30.06 inHg)
Air Temp: 28°C (83 °F) Dewpoint: 26°C (78°F) Relative Humidity: 85%
Sea Surf Temp: 28 °C (83 °F) Wave Height: -99.0m (-324.8 ft) Wave Period: -99
  


IMPORTANT: Notice to Mariners


   Date      Time    Speed     Dir   Gust    AtmPr   AirT   DewPt   WaterT  RelH  WvHt  WvPer
          |  (UTC) | (m/s) |  (°T) | (m/s) |  (mb) |  (°C) |  (°C) |  (°C) | (%) | (m) | (s) |
==========+========+=======+=======+=======+=======+=======+=======+=======+=====+=====+=====+
10/19/2018 00:00:00    10.0      90    12.0 1018.50    26.7    24.5    28.0    87 -99.0  -99
10/19/2018 00:10:00    10.0      90    14.0 1018.70    26.6    24.7   -99.0    89 -99.0  -99
10/19/2018 00:20:00    12.0     100    15.0 1019.10    24.8    23.6    28.1    93 -99.0  -99
10/19/2018 00:30:00    10.0      90    12.0 1019.20    24.5    23.3    28.0    93 -99.0  -99
10/19/2018 00:40:00     9.0      90    11.0 1019.30    25.1    23.5    28.0    90 -99.0  -99
10/19/2018 00:50:00    10.0      90    13.0 1019.20    25.5    23.7    28.0    89   2.3    8
10/19/2018 01:00:00    11.0     100    13.0 1019.20    25.7    23.5    28.1    87 -99.0  -99
10/19/2018 01:10:00    11.0     100    14.0 1019.20    26.0    24.0    28.1    88 -99.0  -99
10/19/2018 01:20:00    11.0     100    14.0 1019.20    25.9    24.1    28.1    89 -99.0  -99
10/19/2018 01:30:00    11.0     100    14.0 1019.10    26.1    24.0    28.1    88 -99.0  -99
10/19/2018 01:40:00    11.0     100    14.0 1019.20   -99.0   -99.0    28.1   100 -99.0  -99
10/19/2018 01:50:00    11.0     100    14.0 1019.20    26.6    24.5    28.1    88   2.3    8
10/19/2018 02:00:00    11.0     110    13.0 1019.00    26.7    24.1    28.1    85 -99.0  -99
10/19/2018 02:10:00    11.0     120    13.0 1018.90    26.5    24.4    28.1    88 -99.0  -99
10/19/2018 02:20:00    11.0     120    13.0 1019.10   -99.0   -99.0    28.1   100 -99.0  -99
10/19/2018 02:30:00    10.0     120    12.0 1019.10    26.5    23.6    28.1    84 -99.0  -99
10/19/2018 02:40:00     9.0     110    11.0 1019.20    26.5    23.6    28.1    84   2.5  -99
10/19/2018 02:50:00     9.0     110    11.0 1019.40    26.7    24.0    28.1    85   2.5    8
10/19/2018 03:00:00    10.0     110    11.0 1019.70    26.7    24.0   -99.0    85 -99.0  -99
10/19/2018 03:10:00     9.0     100    11.0 1019.90    26.9    24.2   -99.0    85 -99.0  -99
10/19/2018 03:20:00     8.0     100    10.0 1019.90    26.9    24.1    28.1    84 -99.0  -99
10/19/2018 03:30:00     8.0      90    10.0 1019.80    27.0    23.7    28.1    82 -99.0  -99
10/19/2018 03:40:00     8.0      90    10.0 1019.70    27.1    23.8   -99.0    82   2.3  -99
10/19/2018 03:50:00     8.0      90    10.0 1019.60    27.1    23.6   -99.0    81   2.3    8
10/19/2018 04:00:00     8.0      80    10.0 1019.60    26.9    23.6   -99.0    82 -99.0  -99
10/19/2018 04:10:00     8.0      80    10.0 1019.40    26.8    23.4    28.1    81 -99.0  -99
10/19/2018 04:20:00     9.0      80    11.0 1019.20    27.0    23.4    28.1    80 -99.0  -99
10/19/2018 04:30:00     9.0      80    11.0 1019.20    26.9    23.9    28.1    83 -99.0  -99
10/19/2018 04:40:00     8.0      80    10.0 1019.20    26.9    24.5    28.1    86 -99.0  -99
10/19/2018 04:50:00     8.0      80    10.0 1019.10    27.1    24.3    28.1    84   2.1    8
10/19/2018 05:00:00     9.0      70    11.0 1019.00    27.1    24.4    28.1    85 -99.0  -99
10/19/2018 05:10:00     9.0      70    11.0 1019.00    27.2    24.6    28.1    85 -99.0  -99
10/19/2018 05:20:00     9.0      70    11.0 1018.90    27.3    24.8    28.1    86 -99.0  -99
10/19/2018 05:30:00     9.0      70    12.0 1018.80    27.4    24.8    28.1    85 -99.0  -99
10/19/2018 05:40:00     8.0      70    10.0 1018.70    27.4    25.1    28.1    87 -99.0  -99
10/19/2018 05:50:00     8.0      70    10.0 1018.50    27.5    25.2    28.1    87   2.3    8
10/19/2018 06:00:00     8.0      70    10.0 1018.40    27.5    25.2   -99.0    87 -99.0  -99
10/19/2018 06:10:00     9.0      80    11.0 1018.20    27.7    25.0    28.1    85 -99.0  -99
10/19/2018 06:20:00     9.0      90    11.0 1018.20    28.0    25.0    28.1    83 -99.0  -99
10/19/2018 06:30:00     9.0      90    11.0 1018.20    28.1    25.1    28.1    83 -99.0  -99
10/19/2018 06:40:00     9.0      90    11.0 1018.20    27.9    25.4    28.1    86 -99.0  -99
10/19/2018 06:50:00     9.0      90    11.0 1018.10    28.0    25.3    28.1    85   2.1    8
10/19/2018 07:00:00     9.0      90    11.0 1018.00    28.1    25.2    28.1    84 -99.0  -99
10/19/2018 07:10:00     8.0     100    10.0 1017.90   -99.0   -99.0    28.1   100 -99.0  -99
10/19/2018 07:20:00     8.0     100    10.0 1017.80    28.1    25.5    28.1    85 -99.0  -99